Time;durP1;ratioP1;P1;durP2;ratioP2;P2;SDS_P1;SDS_P2;PMS_P1;PMS_P2;Temp;Humidity;BMP_temperature;BMP_pressure;BME280_temperature;BME280_humidity;BME280_pressure;Samples;Min_cycle;Max_cycle;Signal;HPM_P1;HPM_P2
2021/12/18 00:00:16;;;;;;;59.53;15.90;;;;;;;;;;5036043;28;20344;-74
2021/12/18 00:02:42;;;;;;;52.17;14.90;;;;;;;;;;5042421;28;20037;-74
2021/12/18 00:05:08;;;;;;;60.35;15.32;;;;;;;;;;5024200;28;20128;-74
2021/12/18 00:07:35;;;;;;;56.88;15.98;;;;;;;;;;5039150;28;20490;-75
2021/12/18 00:10:03;;;;;;;58.58;16.73;;;;;;;;;;5041896;28;20584;-74
2021/12/18 00:12:29;;;;;;;57.20;15.82;;;;;;;;;;5033210;28;20412;-75
2021/12/18 00:14:55;;;;;;;52.03;17.35;;;;;;;;;;5035305;28;20494;-74
2021/12/18 00:17:21;;;;;;;63.95;16.70;;;;;;;;;;5036681;28;20068;-74
2021/12/18 00:19:47;;;;;;;58.30;17.20;;;;;;;;;;5038364;28;20060;-74
2021/12/18 00:22:13;;;;;;;64.22;18.27;;;;;;;;;;5037541;28;20028;-74
2021/12/18 00:24:39;;;;;;;49.17;17.30;;;;;;;;;;5053294;28;20025;-74
2021/12/18 00:27:05;;;;;;;50.67;16.95;;;;;;;;;;5032948;28;20136;-74
2021/12/18 00:29:31;;;;;;;52.67;16.88;;;;;;;;;;5036382;28;20028;-74
2021/12/18 00:31:57;;;;;;;53.33;16.50;;;;;;;;;;5042383;28;20025;-74
2021/12/18 00:34:23;;;;;;;49.97;15.88;;;;;;;;;;5034116;28;20025;-74
2021/12/18 00:36:51;;;;;;;51.72;16.30;;;;;;;;;;5036550;28;20469;-74
2021/12/18 00:39:17;;;;;;;55.60;16.02;;;;;;;;;;5036941;28;20022;-74
2021/12/18 00:42:07;;;;;;;64.85;17.20;;;;;;;;;;5039889;28;20056;-75
2021/12/18 00:44:33;;;;;;;51.40;15.40;;;;;;;;;;5037454;28;20049;-75
2021/12/18 00:46:59;;;;;;;43.83;13.40;;;;;;;;;;5040188;28;20048;-74
2021/12/18 00:49:25;;;;;;;42.15;12.88;;;;;;;;;;5036074;28;20033;-74
2021/12/18 00:51:51;;;;;;;47.03;13.77;;;;;;;;;;5038782;28;20108;-72
2021/12/18 00:54:17;;;;;;;41.92;13.60;;;;;;;;;;5037467;28;20033;-75
2021/12/18 00:56:43;;;;;;;53.20;14.70;;;;;;;;;;5032986;28;20491;-74
2021/12/18 00:59:09;;;;;;;46.13;14.60;;;;;;;;;;5040576;28;20028;-74
2021/12/18 01:01:36;;;;;;;55.80;14.43;;;;;;;;;;5039740;28;20030;-74
2021/12/18 01:04:02;;;;;;;49.90;13.68;;;;;;;;;;5036219;28;20108;-74
2021/12/18 01:06:28;;;;;;;50.00;14.45;;;;;;;;;;5029125;28;20451;-74
2021/12/18 01:08:56;;;;;;;61.55;15.85;;;;;;;;;;5034746;28;20029;-74
2021/12/18 01:16:53;;;;;;;49.60;13.77;;;;;;;;;;5039526;28;20100;-74
2021/12/18 01:24:48;;;;;;;45.25;12.57;;;;;;;;;;5044907;28;20036;-74
2021/12/18 01:27:14;;;;;;;41.92;12.35;;;;;;;;;;5017761;28;20033;-74
2021/12/18 01:29:41;;;;;;;45.65;13.43;;;;;;;;;;5036914;28;20052;-75
2021/12/18 01:32:07;;;;;;;42.95;12.98;;;;;;;;;;5037497;28;20064;-74
2021/12/18 01:34:33;;;;;;;46.60;11.85;;;;;;;;;;5048507;28;20033;-74
2021/12/18 01:36:59;;;;;;;49.42;13.35;;;;;;;;;;5044119;28;20033;-73
2021/12/18 01:39:25;;;;;;;51.03;13.77;;;;;;;;;;5040175;28;20064;-73
2021/12/18 01:42:33;;;;;;;47.63;12.88;;;;;;;;;;5033421;28;20025;-74
2021/12/18 01:45:07;;;;;;;39.33;11.63;;;;;;;;;;5032836;28;20121;-73
2021/12/18 01:52:47;;;;;;;32.03;9.63;;;;;;;;;;5030700;28;20056;-74
2021/12/18 01:55:13;;;;;;;26.67;8.95;;;;;;;;;;5034586;28;20028;-74
2021/12/18 01:57:39;;;;;;;27.30;9.05;;;;;;;;;;5022446;28;20103;-72
2021/12/18 02:00:20;;;;;;;27.48;8.90;;;;;;;;;;5048723;28;20029;-72
2021/12/18 02:02:46;;;;;;;32.58;8.77;;;;;;;;;;5051591;28;20396;-72
2021/12/18 02:05:12;;;;;;;28.02;9.45;;;;;;;;;;5042725;28;20394;-72
2021/12/18 02:07:39;;;;;;;31.80;9.65;;;;;;;;;;5046854;28;20075;-72
2021/12/18 02:10:09;;;;;;;32.67;9.77;;;;;;;;;;5034544;28;20029;-74
2021/12/18 02:12:54;;;;;;;29.13;8.93;;;;;;;;;;5039252;28;20032;-74
2021/12/18 02:20:53;;;;;;;26.20;9.00;;;;;;;;;;5037404;28;20044;-73
2021/12/18 02:23:19;;;;;;;30.23;9.98;;;;;;;;;;5040160;28;20029;-74
2021/12/18 02:25:46;;;;;;;31.90;9.80;;;;;;;;;;5047723;28;20104;-73
2021/12/18 02:28:19;;;;;;;34.95;11.50;;;;;;;;;;5040582;28;20109;-73
2021/12/18 02:30:46;;;;;;;39.72;12.60;;;;;;;;;;5052031;28;20561;-73
2021/12/18 02:33:12;;;;;;;42.67;12.38;;;;;;;;;;5027388;28;20120;-74
2021/12/18 02:35:45;;;;;;;41.92;12.13;;;;;;;;;;5040081;28;20118;-72
2021/12/18 02:38:19;;;;;;;38.65;11.57;;;;;;;;;;5043050;28;20056;-72
2021/12/18 02:43:34;;;;;;;40.35;11.93;;;;;;;;;;5048761;28;20397;-73
2021/12/18 02:46:06;;;;;;;44.75;13.00;;;;;;;;;;5047156;28;20371;-73
2021/12/18 02:48:33;;;;;;;46.47;12.10;;;;;;;;;;5037967;28;20048;-72
2021/12/18 02:50:59;;;;;;;44.22;12.88;;;;;;;;;;5042582;28;20209;-73
2021/12/18 02:53:27;;;;;;;44.75;12.57;;;;;;;;;;5038720;28;20064;-73
2021/12/18 02:55:54;;;;;;;42.70;11.90;;;;;;;;;;5040350;28;20029;-74
2021/12/18 02:58:20;;;;;;;39.08;11.32;;;;;;;;;;5045599;28;20049;-74
2021/12/18 03:00:46;;;;;;;43.67;11.82;;;;;;;;;;5039757;28;20018;-72
2021/12/18 03:03:14;;;;;;;49.00;11.70;;;;;;;;;;5043310;28;20025;-72
2021/12/18 03:05:50;;;;;;;42.00;11.52;;;;;;;;;;5042453;28;20087;-72
2021/12/18 03:08:31;;;;;;;46.63;12.45;;;;;;;;;;5037718;28;20033;-74
2021/12/18 03:25:21;;;;;;;55.67;12.65;;;;;;;;;;5038145;28;20418;-73
2021/12/18 03:27:20;;;;;;;56.78;12.65;;;;;;;;;;5030053;28;20033;-73
2021/12/18 03:29:46;;;;;;;58.60;12.20;;;;;;;;;;5033892;28;20025;-73
2021/12/18 03:32:13;;;;;;;40.05;9.90;;;;;;;;;;5031033;28;20038;-74
2021/12/18 03:34:40;;;;;;;48.97;10.73;;;;;;;;;;5038210;28;20398;-73
2021/12/18 03:37:06;;;;;;;46.38;9.98;;;;;;;;;;5048120;28;20075;-72
2021/12/18 03:39:32;;;;;;;43.35;10.05;;;;;;;;;;5037488;28;20033;-72
2021/12/18 03:41:58;;;;;;;41.35;10.15;;;;;;;;;;5031822;28;20033;-72
2021/12/18 03:44:25;;;;;;;51.83;10.93;;;;;;;;;;5037331;28;20076;-72
2021/12/18 03:46:51;;;;;;;48.08;10.13;;;;;;;;;;5041839;28;20025;-72
2021/12/18 03:49:18;;;;;;;49.58;10.32;;;;;;;;;;5034183;28;20197;-72
2021/12/18 03:51:44;;;;;;;50.38;10.85;;;;;;;;;;5044688;28;20029;-72
2021/12/18 03:54:10;;;;;;;64.55;11.07;;;;;;;;;;5035879;28;20430;-73
2021/12/18 03:56:36;;;;;;;86.38;10.88;;;;;;;;;;5035603;28;20522;-73
2021/12/18 03:59:03;;;;;;;99.25;11.10;;;;;;;;;;5025804;28;20026;-73
2021/12/18 04:01:29;;;;;;;92.50;11.57;;;;;;;;;;5038799;28;20265;-73
2021/12/18 04:03:55;;;;;;;111.15;13.43;;;;;;;;;;5033376;28;20108;-73
2021/12/18 04:06:21;;;;;;;86.13;9.85;;;;;;;;;;5040981;28;20033;-73
2021/12/18 04:08:47;;;;;;;65.20;9.00;;;;;;;;;;5035080;28;20029;-73
2021/12/18 04:11:13;;;;;;;62.97;8.32;;;;;;;;;;5039165;28;20052;-74
2021/12/18 04:13:44;;;;;;;52.03;7.88;;;;;;;;;;5042063;28;20414;-73
2021/12/18 04:16:10;;;;;;;51.38;7.15;;;;;;;;;;5036786;28;20029;-73
2021/12/18 04:18:36;;;;;;;46.55;6.25;;;;;;;;;;5036039;28;20021;-73
2021/12/18 04:21:02;;;;;;;41.97;6.43;;;;;;;;;;5038266;28;20037;-72
2021/12/18 04:23:28;;;;;;;44.22;6.85;;;;;;;;;;5041428;28;20057;-73
2021/12/18 04:25:56;;;;;;;38.78;7.00;;;;;;;;;;5038840;28;20040;-74
2021/12/18 04:28:22;;;;;;;42.75;7.90;;;;;;;;;;5041799;28;20132;-74
2021/12/18 04:30:48;;;;;;;39.25;6.45;;;;;;;;;;5039035;28;20425;-73
2021/12/18 04:33:14;;;;;;;34.67;6.30;;;;;;;;;;5030558;28;20416;-74
2021/12/18 04:35:40;;;;;;;32.55;6.45;;;;;;;;;;5029884;28;20033;-74
2021/12/18 04:38:06;;;;;;;30.52;5.65;;;;;;;;;;5034852;28;20151;-74
2021/12/18 04:40:34;;;;;;;38.25;5.97;;;;;;;;;;5032677;28;20048;-73
2021/12/18 04:43:00;;;;;;;26.48;5.32;;;;;;;;;;5037629;28;20033;-74
2021/12/18 04:45:26;;;;;;;26.70;5.45;;;;;;;;;;5038732;28;20048;-73
2021/12/18 04:47:52;;;;;;;25.83;5.10;;;;;;;;;;5044207;28;20493;-74
2021/12/18 04:50:18;;;;;;;26.77;5.47;;;;;;;;;;5039516;28;20045;-73
2021/12/18 04:52:45;;;;;;;25.90;5.97;;;;;;;;;;5033404;28;20512;-74
2021/12/18 04:55:11;;;;;;;43.45;6.88;;;;;;;;;;5034416;28;20356;-74
2021/12/18 04:57:37;;;;;;;36.17;5.75;;;;;;;;;;5026347;28;20420;-74
2021/12/18 05:00:05;;;;;;;41.15;6.65;;;;;;;;;;5032100;28;20026;-73
2021/12/18 05:02:41;;;;;;;31.63;5.45;;;;;;;;;;5029460;28;20030;-73
2021/12/18 05:05:07;;;;;;;29.98;6.68;;;;;;;;;;5048551;28;20333;-74
2021/12/18 05:07:33;;;;;;;38.35;6.70;;;;;;;;;;5036890;28;20121;-74
2021/12/18 05:10:00;;;;;;;32.83;6.75;;;;;;;;;;5036250;28;20191;-74
2021/12/18 05:12:26;;;;;;;28.70;6.78;;;;;;;;;;5040195;28;20033;-74
2021/12/18 05:14:52;;;;;;;31.45;5.97;;;;;;;;;;5033469;28;20029;-72
2021/12/18 05:17:18;;;;;;;34.97;6.57;;;;;;;;;;5034463;28;20133;-72
2021/12/18 05:19:44;;;;;;;40.50;6.45;;;;;;;;;;5035923;28;20041;-73
2021/12/18 05:22:10;;;;;;;15.80;5.13;;;;;;;;;;5037722;28;20029;-74
2021/12/18 05:24:36;;;;;;;21.83;5.95;;;;;;;;;;5034607;28;20039;-74
2021/12/18 05:27:02;;;;;;;21.55;5.68;;;;;;;;;;5044236;28;20033;-74
2021/12/18 05:29:28;;;;;;;55.78;7.53;;;;;;;;;;5038278;28;20040;-74
2021/12/18 05:31:54;;;;;;;41.30;6.80;;;;;;;;;;5033952;28;20032;-74
2021/12/18 05:34:23;;;;;;;72.70;7.38;;;;;;;;;;5040350;28;20235;-74
2021/12/18 05:39:23;;;;;;;34.33;6.65;;;;;;;;;;5040275;28;20514;-75
2021/12/18 05:41:50;;;;;;;51.47;7.95;;;;;;;;;;5035557;28;20025;-72
2021/12/18 05:44:17;;;;;;;63.50;7.22;;;;;;;;;;5038864;28;20096;-74
2021/12/18 05:46:44;;;;;;;69.80;8.20;;;;;;;;;;5036832;28;20397;-72
2021/12/18 05:49:10;;;;;;;31.75;6.60;;;;;;;;;;5044503;28;20033;-73
2021/12/18 05:51:36;;;;;;;21.02;5.30;;;;;;;;;;5033957;28;20427;-74
2021/12/18 05:54:02;;;;;;;28.38;4.68;;;;;;;;;;5043934;28;20025;-74
2021/12/18 05:56:29;;;;;;;17.98;4.88;;;;;;;;;;5041796;28;20029;-74
2021/12/18 05:58:55;;;;;;;17.73;4.68;;;;;;;;;;5036791;28;20021;-74
2021/12/18 06:01:21;;;;;;;20.15;5.05;;;;;;;;;;5041515;28;20030;-73
2021/12/18 06:03:47;;;;;;;15.95;4.55;;;;;;;;;;5042866;28;20034;-73
2021/12/18 06:06:13;;;;;;;9.68;3.58;;;;;;;;;;5036466;28;20120;-73
2021/12/18 06:08:42;;;;;;;12.15;2.88;;;;;;;;;;5042676;28;20045;-72
2021/12/18 06:11:12;;;;;;;14.48;3.60;;;;;;;;;;5042665;28;20686;-74
2021/12/18 06:13:42;;;;;;;13.55;4.05;;;;;;;;;;5038642;28;20049;-74
2021/12/18 06:16:08;;;;;;;54.35;6.07;;;;;;;;;;5046746;28;20017;-74
2021/12/18 06:18:35;;;;;;;158.77;10.57;;;;;;;;;;5038910;28;20025;-75
2021/12/18 06:21:02;;;;;;;188.32;12.35;;;;;;;;;;5038548;28;20030;-74
2021/12/18 06:23:28;;;;;;;203.30;10.73;;;;;;;;;;5039141;28;20033;-72
2021/12/18 06:25:54;;;;;;;127.07;9.52;;;;;;;;;;5063975;28;20021;-73
2021/12/18 06:28:20;;;;;;;46.25;6.35;;;;;;;;;;5037249;28;20037;-75
2021/12/18 06:30:46;;;;;;;40.47;6.00;;;;;;;;;;5045666;28;20112;-74
2021/12/18 06:33:12;;;;;;;67.80;7.00;;;;;;;;;;5040955;28;20043;-74
2021/12/18 06:35:41;;;;;;;90.63;6.70;;;;;;;;;;5051503;28;20038;-74
2021/12/18 06:38:07;;;;;;;59.03;7.15;;;;;;;;;;5040983;28;20029;-74
2021/12/18 06:40:34;;;;;;;43.50;6.43;;;;;;;;;;5039871;28;20029;-74
2021/12/18 06:43:00;;;;;;;47.92;6.38;;;;;;;;;;5041026;28;20038;-72
2021/12/18 06:45:26;;;;;;;48.92;12.38;;;;;;;;;;5040137;28;20385;-73
2021/12/18 06:47:52;;;;;;;101.97;8.88;;;;;;;;;;5033953;28;20031;-73
2021/12/18 06:50:19;;;;;;;86.55;7.00;;;;;;;;;;5034891;28;20036;-73
2021/12/18 06:52:46;;;;;;;123.22;8.65;;;;;;;;;;5042395;28;20120;-73
2021/12/18 06:55:12;;;;;;;110.22;9.65;;;;;;;;;;5041778;28;20051;-74
2021/12/18 06:57:38;;;;;;;61.50;6.97;;;;;;;;;;5044482;28;20033;-73
2021/12/18 07:00:07;;;;;;;26.85;5.13;;;;;;;;;;5041898;28;20111;-74
2021/12/18 07:02:33;;;;;;;12.05;2.80;;;;;;;;;;5040273;28;20034;-74
2021/12/18 07:04:59;;;;;;;19.40;3.28;;;;;;;;;;5039459;28;20496;-74
2021/12/18 07:07:25;;;;;;;19.17;3.20;;;;;;;;;;5043703;28;20025;-72
2021/12/18 07:09:51;;;;;;;21.13;3.22;;;;;;;;;;5045871;28;20079;-72
2021/12/18 07:12:17;;;;;;;32.45;4.72;;;;;;;;;;5040752;28;20128;-72
2021/12/18 07:14:43;;;;;;;32.97;4.68;;;;;;;;;;5035965;28;20124;-72
2021/12/18 07:17:09;;;;;;;28.48;4.22;;;;;;;;;;5038873;28;20469;-72
2021/12/18 07:19:36;;;;;;;25.95;3.97;;;;;;;;;;5037623;28;20045;-73
2021/12/18 07:22:02;;;;;;;32.45;4.55;;;;;;;;;;5038044;28;20505;-73
2021/12/18 07:24:29;;;;;;;49.22;5.43;;;;;;;;;;5021371;28;20565;-74
2021/12/18 07:26:55;;;;;;;32.90;4.80;;;;;;;;;;5038126;28;20361;-73
2021/12/18 07:29:21;;;;;;;30.48;4.78;;;;;;;;;;5030349;28;20140;-73
2021/12/18 07:31:47;;;;;;;34.35;3.75;;;;;;;;;;5036746;28;20048;-73
2021/12/18 07:34:13;;;;;;;43.80;4.18;;;;;;;;;;5030868;28;20140;-74
2021/12/18 07:36:40;;;;;;;89.90;6.70;;;;;;;;;;5035148;28;20116;-74
2021/12/18 07:39:06;;;;;;;105.00;7.78;;;;;;;;;;5042846;28;20029;-73
2021/12/18 07:41:32;;;;;;;102.70;7.13;;;;;;;;;;5040913;28;21495;-74
2021/12/18 07:43:58;;;;;;;74.95;6.20;;;;;;;;;;5038256;28;20044;-72
2021/12/18 07:46:24;;;;;;;27.63;4.10;;;;;;;;;;5036792;28;20036;-73
2021/12/18 07:48:50;;;;;;;28.48;3.95;;;;;;;;;;5034584;28;20091;-73
2021/12/18 07:51:16;;;;;;;45.92;4.45;;;;;;;;;;5040190;28;20036;-73
2021/12/18 07:53:42;;;;;;;27.73;4.07;;;;;;;;;;5038918;28;20036;-74
2021/12/18 07:56:09;;;;;;;64.80;6.57;;;;;;;;;;5041411;28;20086;-73
2021/12/18 07:58:36;;;;;;;54.42;5.05;;;;;;;;;;5042486;28;20105;-73
2021/12/18 08:01:02;;;;;;;54.78;4.75;;;;;;;;;;5042853;28;20032;-74
2021/12/18 08:03:28;;;;;;;40.60;5.05;;;;;;;;;;5036685;28;20022;-73
2021/12/18 08:05:54;;;;;;;60.22;6.05;;;;;;;;;;5041794;28;20039;-73
2021/12/18 08:08:20;;;;;;;61.83;6.03;;;;;;;;;;5025973;28;20409;-74
2021/12/18 08:10:46;;;;;;;38.83;5.32;;;;;;;;;;5034668;28;20032;-74
2021/12/18 08:13:12;;;;;;;26.10;4.80;;;;;;;;;;5054111;28;20031;-73
2021/12/18 08:15:38;;;;;;;29.48;5.03;;;;;;;;;;5022928;28;20782;-73
2021/12/18 08:18:07;;;;;;;21.95;5.15;;;;;;;;;;5039716;28;20136;-73
2021/12/18 08:20:34;;;;;;;29.58;4.78;;;;;;;;;;5040433;28;20397;-73
2021/12/18 08:23:01;;;;;;;31.63;4.57;;;;;;;;;;5041329;28;20024;-73
2021/12/18 08:25:27;;;;;;;26.92;3.83;;;;;;;;;;5032801;28;20141;-73
2021/12/18 08:27:55;;;;;;;33.22;5.35;;;;;;;;;;5033698;28;20041;-73
2021/12/18 08:30:21;;;;;;;41.50;5.55;;;;;;;;;;5039573;28;20049;-73
2021/12/18 08:32:47;;;;;;;32.67;5.07;;;;;;;;;;5043724;28;20052;-73
2021/12/18 08:35:13;;;;;;;34.00;5.50;;;;;;;;;;5037224;28;20013;-75
2021/12/18 08:37:40;;;;;;;60.92;5.65;;;;;;;;;;5038845;28;20087;-75
2021/12/18 08:40:07;;;;;;;43.85;5.50;;;;;;;;;;5033654;28;20115;-75
2021/12/18 08:42:33;;;;;;;40.40;4.57;;;;;;;;;;5035858;28;20029;-74
2021/12/18 08:45:00;;;;;;;65.35;5.68;;;;;;;;;;5027486;28;20029;-73
2021/12/18 08:47:26;;;;;;;51.83;5.95;;;;;;;;;;5038591;28;20032;-74
2021/12/18 08:49:52;;;;;;;52.92;5.95;;;;;;;;;;5039362;28;20047;-74
2021/12/18 08:52:21;;;;;;;44.50;5.38;;;;;;;;;;5036565;28;20056;-74
2021/12/18 08:54:47;;;;;;;30.45;4.90;;;;;;;;;;5031384;28;20029;-75
2021/12/18 08:57:13;;;;;;;40.95;5.75;;;;;;;;;;5032592;28;20121;-74
2021/12/18 08:59:39;;;;;;;52.22;5.80;;;;;;;;;;5025174;28;20356;-75
2021/12/18 09:02:06;;;;;;;57.40;6.05;;;;;;;;;;5051912;28;20055;-74
2021/12/18 09:04:32;;;;;;;52.85;7.45;;;;;;;;;;5052218;28;20079;-73
2021/12/18 09:06:58;;;;;;;48.25;6.95;;;;;;;;;;5036251;28;20044;-74
2021/12/18 09:09:24;;;;;;;53.60;5.78;;;;;;;;;;5030199;28;20098;-73
2021/12/18 09:11:50;;;;;;;70.10;8.68;;;;;;;;;;5036589;28;20393;-73
2021/12/18 09:14:16;;;;;;;58.63;6.22;;;;;;;;;;5033326;28;20033;-74
2021/12/18 09:16:42;;;;;;;76.97;6.82;;;;;;;;;;5035008;28;20040;-74
2021/12/18 09:19:09;;;;;;;58.03;6.97;;;;;;;;;;5024020;28;20402;-73
2021/12/18 09:21:35;;;;;;;126.47;9.10;;;;;;;;;;5034357;28;20022;-73
2021/12/18 09:24:01;;;;;;;178.98;12.63;;;;;;;;;;5046610;28;20044;-74
2021/12/18 09:26:27;;;;;;;101.93;7.43;;;;;;;;;;5037972;28;20068;-74
2021/12/18 09:28:53;;;;;;;48.15;7.60;;;;;;;;;;5040492;28;20033;-74
2021/12/18 09:31:19;;;;;;;52.88;8.77;;;;;;;;;;5039730;28;20061;-73
2021/12/18 09:33:45;;;;;;;35.05;5.97;;;;;;;;;;5031119;28;20587;-72
2021/12/18 09:36:11;;;;;;;33.78;5.82;;;;;;;;;;5035127;28;20486;-72
2021/12/18 09:38:37;;;;;;;35.80;7.15;;;;;;;;;;5044619;28;20029;-74
2021/12/18 09:41:06;;;;;;;44.80;6.80;;;;;;;;;;5035685;28;20033;-73
2021/12/18 09:43:32;;;;;;;34.70;7.20;;;;;;;;;;5042068;28;20037;-75
2021/12/18 09:46:02;;;;;;;35.30;6.55;;;;;;;;;;5037582;28;20029;-74
2021/12/18 09:48:29;;;;;;;30.70;6.90;;;;;;;;;;5032139;28;20490;-74
2021/12/18 09:50:57;;;;;;;20.60;5.43;;;;;;;;;;5033669;28;20033;-73
2021/12/18 09:53:23;;;;;;;23.75;5.88;;;;;;;;;;5046564;28;20040;-73
2021/12/18 09:55:49;;;;;;;36.13;6.93;;;;;;;;;;5041751;28;20056;-72
2021/12/18 09:58:15;;;;;;;19.20;6.38;;;;;;;;;;5043495;28;20453;-73
2021/12/18 10:00:41;;;;;;;20.45;6.00;;;;;;;;;;5034863;28;20047;-73
2021/12/18 10:03:07;;;;;;;21.38;5.82;;;;;;;;;;5045091;28;20364;-74
2021/12/18 10:05:35;;;;;;;32.95;6.32;;;;;;;;;;5042786;28;20020;-74
2021/12/18 10:08:12;;;;;;;23.15;5.95;;;;;;;;;;5043094;28;20121;-74
2021/12/18 10:10:39;;;;;;;24.20;5.57;;;;;;;;;;5040014;28;20033;-74
2021/12/18 10:13:09;;;;;;;22.50;5.78;;;;;;;;;;5036433;28;20030;-74
2021/12/18 10:15:36;;;;;;;25.10;6.40;;;;;;;;;;5033125;28;20025;-72
2021/12/18 10:18:09;;;;;;;21.30;5.93;;;;;;;;;;5046026;28;20410;-72
2021/12/18 10:20:36;;;;;;;15.27;5.38;;;;;;;;;;5029639;28;20105;-74
2021/12/18 10:23:04;;;;;;;14.10;5.80;;;;;;;;;;5040594;28;20025;-74
2021/12/18 10:25:39;;;;;;;12.63;4.38;;;;;;;;;;5044604;28;20025;-73
2021/12/18 10:28:13;;;;;;;9.75;3.75;;;;;;;;;;5036117;28;20078;-73
2021/12/18 10:30:43;;;;;;;8.93;4.32;;;;;;;;;;5043943;28;20037;-74
2021/12/18 10:33:11;;;;;;;10.18;4.30;;;;;;;;;;5040041;28;20108;-73
2021/12/18 10:35:52;;;;;;;14.35;4.80;;;;;;;;;;5033325;28;20029;-73
2021/12/18 10:38:38;;;;;;;10.43;4.30;;;;;;;;;;5033757;28;20037;-74
2021/12/18 10:41:19;;;;;;;13.27;4.40;;;;;;;;;;5044120;28;20026;-74
2021/12/18 10:44:02;;;;;;;12.77;5.63;;;;;;;;;;5040720;28;20033;-74
2021/12/18 10:46:29;;;;;;;11.43;4.68;;;;;;;;;;5041757;28;20532;-73
2021/12/18 10:48:56;;;;;;;10.18;4.18;;;;;;;;;;5043566;28;20034;-74
2021/12/18 10:51:23;;;;;;;7.68;3.55;;;;;;;;;;5044691;28;20120;-74
2021/12/18 10:53:50;;;;;;;5.78;2.95;;;;;;;;;;5037512;28;20022;-74
2021/12/18 10:56:16;;;;;;;6.80;3.47;;;;;;;;;;5032369;28;20116;-74
2021/12/18 10:58:42;;;;;;;6.10;3.65;;;;;;;;;;5039753;28;20356;-73
2021/12/18 11:01:16;;;;;;;10.88;3.78;;;;;;;;;;5040517;28;20063;-73
2021/12/18 11:03:49;;;;;;;6.47;3.38;;;;;;;;;;5044096;28;20029;-74
2021/12/18 11:06:17;;;;;;;7.20;2.97;;;;;;;;;;5047916;28;20031;-74
2021/12/18 11:08:56;;;;;;;7.82;3.65;;;;;;;;;;5040949;28;20029;-72
2021/12/18 11:14:02;;;;;;;4.55;1.98;;;;;;;;;;5041027;28;20049;-74
2021/12/18 11:16:29;;;;;;;5.28;2.20;;;;;;;;;;5038791;28;20030;-73
2021/12/18 11:18:56;;;;;;;2.08;1.27;;;;;;;;;;5042974;28;20035;-75
2021/12/18 11:21:26;;;;;;;4.15;1.63;;;;;;;;;;5037368;28;20037;-73
2021/12/18 11:23:56;;;;;;;2.97;1.60;;;;;;;;;;5035058;28;20041;-73
2021/12/18 11:26:24;;;;;;;2.25;1.50;;;;;;;;;;5031819;28;20537;-73
2021/12/18 11:28:51;;;;;;;3.05;1.83;;;;;;;;;;5042735;28;20025;-73
2021/12/18 11:31:18;;;;;;;2.90;1.67;;;;;;;;;;5040460;28;20052;-73
2021/12/18 11:33:45;;;;;;;3.85;1.80;;;;;;;;;;5036330;28;20126;-75
2021/12/18 11:36:11;;;;;;;2.33;1.33;;;;;;;;;;5043264;28;20025;-73
2021/12/18 11:38:39;;;;;;;3.33;1.60;;;;;;;;;;5041523;28;20041;-73
2021/12/18 11:41:06;;;;;;;3.38;1.83;;;;;;;;;;5038304;28;20036;-73
2021/12/18 11:43:32;;;;;;;2.72;1.58;;;;;;;;;;5037803;28;20134;-73
2021/12/18 11:45:58;;;;;;;3.40;1.90;;;;;;;;;;5034213;28;20094;-74
2021/12/18 11:48:25;;;;;;;2.70;1.55;;;;;;;;;;5036417;28;20043;-73
2021/12/18 11:50:51;;;;;;;3.10;1.92;;;;;;;;;;5036267;28;20037;-73
2021/12/18 11:53:19;;;;;;;3.45;2.00;;;;;;;;;;5041238;28;20098;-73
2021/12/18 11:55:51;;;;;;;3.92;2.08;;;;;;;;;;5039848;28;20029;-73
2021/12/18 11:58:17;;;;;;;5.72;2.10;;;;;;;;;;5037969;28;20033;-73
2021/12/18 12:00:45;;;;;;;8.57;2.47;;;;;;;;;;5039972;28;20115;-74
2021/12/18 12:03:13;;;;;;;8.60;2.70;;;;;;;;;;5036382;28;20148;-73
2021/12/18 12:05:42;;;;;;;4.38;2.10;;;;;;;;;;5038385;28;20029;-72
2021/12/18 12:08:22;;;;;;;6.68;2.35;;;;;;;;;;5039652;28;20032;-73
2021/12/18 12:11:06;;;;;;;6.88;4.20;;;;;;;;;;5039309;28;20179;-73
2021/12/18 12:13:51;;;;;;;4.93;2.85;;;;;;;;;;5036224;28;20036;-73
2021/12/18 12:16:17;;;;;;;4.22;2.60;;;;;;;;;;5042617;28;20077;-72
2021/12/18 12:19:02;;;;;;;4.72;2.75;;;;;;;;;;5041251;28;20043;-74
2021/12/18 12:21:38;;;;;;;12.55;8.02;;;;;;;;;;5039578;28;20029;-72
2021/12/18 12:24:05;;;;;;;8.45;3.22;;;;;;;;;;5032322;28;20519;-74
2021/12/18 12:26:31;;;;;;;8.60;3.50;;;;;;;;;;5037518;28;20108;-73
2021/12/18 12:28:57;;;;;;;5.95;3.97;;;;;;;;;;5039255;28;20037;-71
2021/12/18 12:31:23;;;;;;;6.97;2.80;;;;;;;;;;5034692;28;20036;-74
2021/12/18 12:33:50;;;;;;;6.32;3.50;;;;;;;;;;5039272;28;20025;-72
2021/12/18 12:36:22;;;;;;;10.25;4.22;;;;;;;;;;5035923;28;20573;-74
2021/12/18 12:39:01;;;;;;;6.13;3.50;;;;;;;;;;5035812;28;20096;-74
2021/12/18 12:41:28;;;;;;;7.43;4.10;;;;;;;;;;5037718;28;20047;-74
2021/12/18 12:43:56;;;;;;;7.20;3.67;;;;;;;;;;5036132;28;20042;-74
2021/12/18 12:46:24;;;;;;;8.60;3.95;;;;;;;;;;5042969;28;20127;-73
2021/12/18 12:49:05;;;;;;;9.02;4.15;;;;;;;;;;5036844;28;20064;-74
2021/12/18 12:51:54;;;;;;;6.22;3.60;;;;;;;;;;5036878;28;20086;-74
2021/12/18 12:54:38;;;;;;;9.90;5.57;;;;;;;;;;5038737;28;20433;-74
2021/12/18 12:57:23;;;;;;;5.80;3.70;;;;;;;;;;5037708;28;20037;-72
2021/12/18 12:59:53;;;;;;;9.38;4.10;;;;;;;;;;5041263;28;20021;-74
2021/12/18 13:02:19;;;;;;;5.18;3.50;;;;;;;;;;5035485;28;20020;-74
2021/12/18 13:04:45;;;;;;;9.15;3.78;;;;;;;;;;5034685;28;21635;-72
2021/12/18 13:07:11;;;;;;;5.85;3.50;;;;;;;;;;5035443;28;20049;-73
2021/12/18 13:09:45;;;;;;;9.50;3.33;;;;;;;;;;5039367;28;20037;-73
2021/12/18 13:12:11;;;;;;;6.95;3.03;;;;;;;;;;5032120;28;20079;-74
2021/12/18 13:14:41;;;;;;;8.52;3.35;;;;;;;;;;5035081;28;20256;-74
2021/12/18 13:17:21;;;;;;;6.00;3.10;;;;;;;;;;5040280;28;20549;-74
2021/12/18 13:19:53;;;;;;;5.05;3.42;;;;;;;;;;5039154;28;20033;-72
2021/12/18 13:22:22;;;;;;;6.38;4.00;;;;;;;;;;5036898;28;20021;-72
2021/12/18 13:25:06;;;;;;;9.13;4.13;;;;;;;;;;5033119;28;20498;-72
2021/12/18 13:27:33;;;;;;;7.00;4.10;;;;;;;;;;5038391;28;20064;-73
2021/12/18 13:30:29;;;;;;;6.90;4.20;;;;;;;;;;5040093;28;20040;-73
2021/12/18 13:32:56;;;;;;;6.53;3.83;;;;;;;;;;5038634;28;20048;-74
2021/12/18 13:35:24;;;;;;;9.80;4.57;;;;;;;;;;5035381;28;20367;-72
2021/12/18 13:38:02;;;;;;;7.82;5.05;;;;;;;;;;5042532;28;20390;-72
2021/12/18 13:40:30;;;;;;;13.00;5.10;;;;;;;;;;5039487;28;20518;-74
2021/12/18 13:43:08;;;;;;;19.27;7.38;;;;;;;;;;5034569;28;20057;-72
2021/12/18 13:45:47;;;;;;;13.32;7.15;;;;;;;;;;5038713;28;20064;-73
2021/12/18 13:48:13;;;;;;;8.60;5.95;;;;;;;;;;5037599;28;20507;-73
2021/12/18 13:50:39;;;;;;;9.35;6.45;;;;;;;;;;5031477;28;20037;-72
2021/12/18 13:53:06;;;;;;;12.35;6.57;;;;;;;;;;5033637;28;20041;-72
2021/12/18 13:55:32;;;;;;;13.35;7.47;;;;;;;;;;5042306;28;20032;-74
2021/12/18 13:58:01;;;;;;;15.52;9.10;;;;;;;;;;5034784;28;20116;-73
2021/12/18 14:00:27;;;;;;;14.57;8.68;;;;;;;;;;5040566;28;20421;-72
2021/12/18 14:02:53;;;;;;;14.82;7.97;;;;;;;;;;5040400;28;20154;-72
2021/12/18 14:05:19;;;;;;;13.98;8.13;;;;;;;;;;5040909;28;20021;-73
2021/12/18 14:07:46;;;;;;;18.63;8.88;;;;;;;;;;5046226;28;20084;-72
2021/12/18 14:10:12;;;;;;;17.35;9.40;;;;;;;;;;5042462;28;20040;-73
2021/12/18 14:12:38;;;;;;;14.30;8.55;;;;;;;;;;5039569;28;20437;-72
2021/12/18 14:15:05;;;;;;;15.55;8.57;;;;;;;;;;5041721;28;20040;-73
2021/12/18 14:17:32;;;;;;;16.08;8.27;;;;;;;;;;5042530;28;20097;-72
2021/12/18 14:20:04;;;;;;;16.30;6.70;;;;;;;;;;5040134;28;20026;-72
2021/12/18 14:22:31;;;;;;;10.55;5.60;;;;;;;;;;5040571;28;20030;-72
2021/12/18 14:25:03;;;;;;;13.30;6.03;;;;;;;;;;5042365;28;20057;-72
2021/12/18 14:27:39;;;;;;;11.50;6.13;;;;;;;;;;5040855;28;20294;-72
2021/12/18 14:30:12;;;;;;;52.05;10.32;;;;;;;;;;5046829;28;20486;-72
2021/12/18 14:32:40;;;;;;;36.00;7.82;;;;;;;;;;5037243;28;20033;-73
2021/12/18 14:35:07;;;;;;;19.60;7.78;;;;;;;;;;5037199;28;20026;-72
2021/12/18 14:37:46;;;;;;;22.30;8.05;;;;;;;;;;5040507;28;20044;-73
2021/12/18 14:40:16;;;;;;;21.63;7.45;;;;;;;;;;5043297;28;20355;-72
2021/12/18 14:42:54;;;;;;;21.45;7.97;;;;;;;;;;5044364;28;20087;-73
2021/12/18 14:45:21;;;;;;;20.98;7.90;;;;;;;;;;5043951;28;20044;-73
2021/12/18 14:47:49;;;;;;;18.92;8.43;;;;;;;;;;5042758;28;20083;-74
2021/12/18 14:50:21;;;;;;;21.45;8.27;;;;;;;;;;5042743;28;20441;-74
2021/12/18 14:52:48;;;;;;;15.50;7.03;;;;;;;;;;5038525;28;20032;-74
2021/12/18 14:55:14;;;;;;;16.65;6.82;;;;;;;;;;5044307;28;20048;-75
2021/12/18 14:57:50;;;;;;;17.30;7.80;;;;;;;;;;5046538;28;20099;-74
2021/12/18 15:00:27;;;;;;;15.35;6.88;;;;;;;;;;5042817;28;20041;-73
2021/12/18 15:03:01;;;;;;;19.95;7.28;;;;;;;;;;5040529;28;20027;-73
2021/12/18 15:05:29;;;;;;;21.17;8.20;;;;;;;;;;5040839;28;20057;-73
2021/12/18 15:07:56;;;;;;;18.17;7.82;;;;;;;;;;5042563;28;20025;-73
2021/12/18 15:10:22;;;;;;;19.20;8.10;;;;;;;;;;5037027;28;20079;-72
2021/12/18 15:12:48;;;;;;;15.77;7.97;;;;;;;;;;5042317;28;20033;-73
2021/12/18 15:15:15;;;;;;;14.73;7.03;;;;;;;;;;5035617;28;20037;-73
2021/12/18 15:17:41;;;;;;;13.00;5.88;;;;;;;;;;5042992;28;20036;-73